createdAt,value
2022-08-02T00:01:12.943Z,0
2022-08-02T00:02:29.227Z,0
2022-08-02T00:03:44.561Z,0
2022-08-02T00:04:59.871Z,0
2022-08-02T00:06:16.170Z,0
2022-08-02T00:07:32.455Z,0
2022-08-02T00:08:47.779Z,0
2022-08-02T00:10:03.075Z,0
2022-08-02T00:11:19.387Z,0
2022-08-02T00:12:35.682Z,0
2022-08-02T00:13:51.958Z,0
2022-08-02T00:15:08.265Z,0
2022-08-02T00:16:24.550Z,0
2022-08-02T00:17:40.849Z,0
2022-08-02T00:18:57.155Z,0
2022-08-02T00:20:13.439Z,0
2022-08-02T00:21:29.730Z,0
2022-08-02T00:22:46.016Z,0
2022-08-02T00:24:02.316Z,0
2022-08-02T00:25:18.605Z,0
2022-08-02T00:26:33.930Z,0
2022-08-02T00:27:50.212Z,0
2022-08-02T00:29:06.516Z,0
2022-08-02T00:30:22.806Z,0
2022-08-02T00:32:55.386Z,0
2022-08-02T00:34:11.693Z,0
2022-08-02T00:35:27.973Z,0
2022-08-02T00:36:43.303Z,0
2022-08-02T00:37:58.602Z,0
2022-08-02T00:39:13.932Z,0
2022-08-02T00:40:29.234Z,0
2022-08-02T00:41:45.526Z,0
2022-08-02T00:43:01.833Z,0
2022-08-02T00:44:18.112Z,0
2022-08-02T00:45:34.400Z,0
2022-08-02T00:46:50.698Z,0
2022-08-02T00:48:06.998Z,0
2022-08-02T00:49:23.291Z,0
2022-08-02T00:50:39.581Z,0
2022-08-02T00:51:55.875Z,0
2022-08-02T00:53:12.185Z,0
2022-08-02T00:54:28.468Z,0
2022-08-02T00:55:44.765Z,0
2022-08-02T00:57:00.065Z,0
2022-08-02T00:58:16.359Z,0
2022-08-02T00:59:32.652Z,0
2022-08-02T01:00:48.960Z,0
2022-08-02T01:02:05.242Z,0
2022-08-02T01:03:21.535Z,0
2022-08-02T01:04:37.843Z,0
2022-08-02T01:05:53.153Z,0
2022-08-02T01:07:08.458Z,0
2022-08-02T01:08:24.756Z,0
2022-08-02T01:09:40.066Z,0
2022-08-02T01:10:55.389Z,0
2022-08-02T01:12:11.671Z,0
2022-08-02T01:13:27.963Z,0
2022-08-02T01:14:44.267Z,0
2022-08-02T01:16:00.553Z,0
2022-08-02T01:17:16.856Z,0
2022-08-02T01:18:33.153Z,0
2022-08-02T01:19:49.447Z,0
2022-08-02T01:21:05.733Z,0
2022-08-02T01:22:22.026Z,0
2022-08-02T01:23:38.329Z,0
2022-08-02T01:24:54.622Z,0
2022-08-02T01:26:10.913Z,0
2022-08-02T01:27:27.206Z,0
2022-08-02T01:28:42.521Z,0
2022-08-02T01:29:58.809Z,0
2022-08-02T01:31:15.105Z,0
2022-08-02T01:32:31.392Z,0
2022-08-02T01:33:47.681Z,0
2022-08-02T01:35:03.991Z,0
2022-08-02T01:36:19.298Z,0
2022-08-02T01:37:34.620Z,0
2022-08-02T01:38:49.930Z,0
2022-08-02T01:40:05.245Z,0
2022-08-02T01:41:21.538Z,0
2022-08-02T01:42:37.823Z,0
2022-08-02T01:43:54.129Z,0
2022-08-02T01:45:10.422Z,0
2022-08-02T01:46:26.699Z,0
2022-08-02T01:47:43.006Z,0
2022-08-02T01:48:59.305Z,0
2022-08-02T01:50:15.589Z,0
2022-08-02T01:51:31.873Z,0
2022-08-02T01:52:48.171Z,0
2022-08-02T01:54:04.477Z,0
2022-08-02T01:55:20.771Z,0
2022-08-02T01:56:36.081Z,0
2022-08-02T01:57:52.373Z,0
2022-08-02T01:59:08.673Z,0
2022-08-02T02:00:24.948Z,0
2022-08-02T02:01:41.249Z,0
2022-08-02T02:02:57.537Z,0
2022-08-02T02:04:13.845Z,0
2022-08-02T02:05:29.148Z,0
2022-08-02T02:06:44.460Z,0
2022-08-02T02:07:59.780Z,0
2022-08-02T02:09:15.094Z,0
2022-08-02T02:10:31.380Z,0
2022-08-02T02:11:47.679Z,0
2022-08-02T02:13:03.976Z,0
2022-08-02T02:14:20.271Z,0
2022-08-02T02:15:36.556Z,0
2022-08-02T02:16:52.854Z,0
2022-08-02T02:18:09.155Z,0
2022-08-02T02:19:25.447Z,0
2022-08-02T02:20:41.744Z,0
2022-08-02T02:21:58.029Z,0
2022-08-02T02:23:14.318Z,0
2022-08-02T02:24:30.617Z,0
2022-08-02T02:25:45.933Z,0
2022-08-02T02:27:02.227Z,0
2022-08-02T02:28:18.524Z,0
2022-08-02T02:29:34.805Z,0
2022-08-02T02:30:51.098Z,0
2022-08-02T02:32:07.407Z,0
2022-08-02T02:33:23.699Z,0
2022-08-02T02:34:39.005Z,0
2022-08-02T02:35:54.311Z,0
2022-08-02T02:37:09.638Z,0
2022-08-02T02:38:24.937Z,0
2022-08-02T02:39:41.247Z,0
2022-08-02T02:40:57.532Z,0
2022-08-02T02:42:13.826Z,0
2022-08-02T02:43:30.129Z,0
2022-08-02T02:44:46.419Z,0
2022-08-02T02:46:02.714Z,0
2022-08-02T02:47:19.006Z,0
2022-08-02T02:48:35.299Z,0
2022-08-02T02:49:51.588Z,0
2022-08-02T02:51:07.890Z,0
2022-08-02T02:52:24.180Z,0
2022-08-02T02:53:40.481Z,0
2022-08-02T02:54:55.792Z,0
2022-08-02T02:56:12.077Z,0
2022-08-02T02:57:28.331Z,1
2022-08-02T02:58:44.615Z,0
2022-08-02T03:00:00.913Z,0
2022-08-02T03:01:17.156Z,1
2022-08-02T03:02:33.410Z,1
2022-08-02T03:03:48.723Z,0
2022-08-02T03:05:04.016Z,0
2022-08-02T03:06:20.287Z,2
2022-08-02T03:07:36.510Z,1
2022-08-02T03:08:52.761Z,1
2022-08-02T03:10:09.058Z,0
2022-08-02T03:11:25.317Z,1
2022-08-02T03:12:41.554Z,1
2022-08-02T03:13:57.793Z,2
2022-08-02T03:15:14.043Z,2
2022-08-02T03:16:30.277Z,2
2022-08-02T03:17:46.525Z,3
2022-08-02T03:19:02.762Z,4
2022-08-02T03:20:18.985Z,6
2022-08-02T03:21:34.249Z,5
2022-08-02T03:22:50.488Z,9
2022-08-02T03:24:06.733Z,8
2022-08-02T03:25:22.979Z,6
2022-08-02T03:26:39.219Z,8
2022-08-02T03:27:55.461Z,11
2022-08-02T03:29:11.686Z,10
2022-08-02T03:30:26.956Z,11
2022-08-02T03:31:42.214Z,15
2022-08-02T03:32:57.478Z,18
2022-08-02T03:34:12.720Z,18
2022-08-02T03:35:28.973Z,22
2022-08-02T03:36:45.211Z,28
2022-08-02T03:38:01.450Z,26
2022-08-02T03:39:17.680Z,31
2022-08-02T03:40:33.924Z,38
2022-08-02T03:41:50.159Z,37
2022-08-02T03:43:06.409Z,46
2022-08-02T03:44:22.640Z,52
2022-08-02T03:45:38.878Z,52
2022-08-02T03:46:55.126Z,50
2022-08-02T03:48:11.365Z,51
2022-08-02T03:49:27.597Z,59
2022-08-02T03:50:42.859Z,58
2022-08-02T03:51:59.104Z,63
2022-08-02T03:53:15.345Z,66
2022-08-02T03:54:31.590Z,74
2022-08-02T03:55:47.823Z,87
2022-08-02T03:57:04.063Z,98
2022-08-02T03:58:20.307Z,109
2022-08-02T03:59:35.557Z,123
2022-08-02T04:00:50.814Z,122
2022-08-02T04:02:06.082Z,118
2022-08-02T04:03:21.338Z,116
2022-08-02T04:04:37.586Z,115
2022-08-02T04:05:53.824Z,118
2022-08-02T04:07:10.062Z,116
2022-08-02T04:08:26.297Z,119
2022-08-02T04:09:42.537Z,124
2022-08-02T04:10:58.772Z,146
2022-08-02T04:12:15.023Z,171
2022-08-02T04:13:31.264Z,196
2022-08-02T04:14:47.493Z,212
2022-08-02T04:16:03.735Z,229
2022-08-02T04:17:19.977Z,236
2022-08-02T04:18:35.243Z,250
2022-08-02T04:19:51.478Z,261
2022-08-02T04:21:07.719Z,277
2022-08-02T04:22:23.963Z,310
2022-08-02T04:23:40.195Z,353
2022-08-02T04:24:56.445Z,374
2022-08-02T04:26:12.692Z,383
2022-08-02T04:27:28.913Z,381
2022-08-02T04:28:44.183Z,369
2022-08-02T04:29:59.430Z,368
2022-08-02T04:31:14.708Z,383
2022-08-02T04:32:29.951Z,431
2022-08-02T04:33:46.202Z,458
2022-08-02T04:35:02.445Z,480
2022-08-02T04:36:18.668Z,532
2022-08-02T04:37:34.927Z,536
2022-08-02T04:38:51.162Z,549
2022-08-02T04:40:07.404Z,557
2022-08-02T04:41:23.630Z,540
2022-08-02T04:42:39.870Z,577
2022-08-02T04:43:56.121Z,614
2022-08-02T04:45:12.355Z,671
2022-08-02T04:46:28.604Z,834
2022-08-02T04:47:44.846Z,888
2022-08-02T04:49:00.098Z,825
2022-08-02T04:50:16.332Z,706
2022-08-02T04:51:32.568Z,654
2022-08-02T04:52:48.820Z,641
2022-08-02T04:54:05.052Z,649
2022-08-02T04:55:21.292Z,745
2022-08-02T04:56:37.533Z,847
2022-08-02T04:57:52.800Z,847
2022-08-02T04:59:08.051Z,774
2022-08-02T05:00:23.308Z,714
2022-08-02T05:01:38.575Z,653
2022-08-02T05:02:54.821Z,589
2022-08-02T05:04:11.043Z,589
2022-08-02T05:05:27.281Z,632
2022-08-02T05:06:43.526Z,682
2022-08-02T05:07:59.777Z,682
2022-08-02T05:09:16.003Z,644
2022-08-02T05:10:32.246Z,673
2022-08-02T05:11:48.483Z,639
2022-08-02T05:13:04.724Z,604
2022-08-02T05:14:20.963Z,586
2022-08-02T05:15:37.212Z,634
2022-08-02T05:16:53.451Z,695
2022-08-02T05:18:08.699Z,724
2022-08-02T05:19:24.948Z,865
2022-08-02T05:20:41.190Z,967
2022-08-02T05:21:57.436Z,1002
2022-08-02T05:23:13.678Z,1015
2022-08-02T05:24:29.903Z,1055
2022-08-02T05:25:46.160Z,1138
2022-08-02T05:27:01.405Z,1239
2022-08-02T05:28:16.675Z,1361
2022-08-02T05:29:32.916Z,1467
2022-08-02T05:30:49.148Z,1039
2022-08-02T05:32:05.387Z,1479
2022-08-02T05:33:21.631Z,2530
2022-08-02T05:34:37.861Z,2012
2022-08-02T05:35:54.102Z,1540
2022-08-02T05:37:10.339Z,1767
2022-08-02T05:38:26.593Z,2294
2022-08-02T05:39:42.833Z,2579
2022-08-02T05:40:59.069Z,2401
2022-08-02T05:42:15.312Z,2028
2022-08-02T05:43:31.542Z,2056
2022-08-02T05:44:46.796Z,2106
2022-08-02T05:46:03.045Z,2154
2022-08-02T05:47:19.287Z,2189
2022-08-02T05:48:35.520Z,2309
2022-08-02T05:49:51.759Z,2361
2022-08-02T05:51:08.006Z,2403
2022-08-02T05:52:24.240Z,2311
2022-08-02T05:53:39.499Z,2233
2022-08-02T05:54:54.767Z,2490
2022-08-02T05:56:10.997Z,2593
2022-08-02T05:57:27.247Z,2681
2022-08-02T05:58:43.473Z,2306
2022-08-02T05:59:59.731Z,2487
2022-08-02T06:01:15.953Z,2623
2022-08-02T06:02:32.197Z,2709
2022-08-02T06:03:48.433Z,2268
2022-08-02T06:05:04.678Z,2325
2022-08-02T06:06:20.923Z,2272
2022-08-02T06:07:37.165Z,2295
2022-08-02T06:08:53.402Z,3077
2022-08-02T06:10:09.650Z,2612
2022-08-02T06:11:24.893Z,2343
2022-08-02T06:12:41.144Z,2687
2022-08-02T06:13:57.385Z,2049
2022-08-02T06:15:13.609Z,3050
2022-08-02T06:16:29.853Z,2277
2022-08-02T06:17:46.090Z,2269
2022-08-02T06:19:02.334Z,1462
2022-08-02T06:20:17.593Z,3211
2022-08-02T06:21:32.854Z,1747
2022-08-02T06:22:49.096Z,4198
2022-08-02T06:24:05.342Z,1897
2022-08-02T06:25:21.582Z,3590
2022-08-02T06:26:37.814Z,4259
2022-08-02T06:27:54.059Z,3259
2022-08-02T06:29:10.302Z,4117
2022-08-02T06:30:26.527Z,3959
2022-08-02T06:31:42.777Z,3486
2022-08-02T06:32:59.016Z,4309
2022-08-02T06:34:15.255Z,3272
2022-08-02T06:35:31.484Z,2728
2022-08-02T06:36:47.734Z,1950
2022-08-02T06:38:02.992Z,3602
2022-08-02T06:39:19.220Z,3395
2022-08-02T06:40:35.463Z,3847
2022-08-02T06:41:51.715Z,3387
2022-08-02T06:43:07.941Z,3681
2022-08-02T06:44:24.186Z,4161
2022-08-02T06:45:40.422Z,4232
2022-08-02T06:46:55.702Z,4199
2022-08-02T06:48:10.938Z,4579
2022-08-02T06:49:27.183Z,4372
2022-08-02T06:50:43.426Z,4364
2022-08-02T06:51:59.665Z,4323
2022-08-02T06:53:15.899Z,4337
2022-08-02T06:54:32.152Z,4440
2022-08-02T06:55:48.397Z,4489
2022-08-02T06:57:04.632Z,4201
2022-08-02T06:58:20.858Z,4284
2022-08-02T06:59:37.107Z,4481
2022-08-02T07:00:53.352Z,4088
2022-08-02T07:02:09.583Z,4052
2022-08-02T07:03:25.827Z,4456
2022-08-02T07:04:41.089Z,4618
2022-08-02T07:05:57.315Z,5087
2022-08-02T07:07:13.561Z,4917
2022-08-02T07:08:29.807Z,4410
2022-08-02T07:09:46.038Z,4217
2022-08-02T07:11:02.274Z,4087
2022-08-02T07:12:18.520Z,3932
2022-08-02T07:13:34.767Z,3992
2022-08-02T07:14:51.002Z,3941
2022-08-02T07:16:07.243Z,3505
2022-08-02T07:17:23.473Z,3925
2022-08-02T07:18:39.712Z,4098
2022-08-02T07:19:55.962Z,3690
2022-08-02T07:21:11.209Z,4622
2022-08-02T07:22:27.458Z,4893
2022-08-02T07:23:43.692Z,5943
2022-08-02T07:24:59.941Z,5277
2022-08-02T07:26:16.179Z,5224
2022-08-02T07:27:32.428Z,5621
2022-08-02T07:28:48.650Z,4104
2022-08-02T07:30:04.906Z,4231
2022-08-02T07:31:21.139Z,4821
2022-08-02T07:32:37.382Z,5632
2022-08-02T07:33:53.610Z,5476
2022-08-02T07:35:09.858Z,6665
2022-08-02T07:36:26.107Z,6782
2022-08-02T07:37:41.351Z,5370
2022-08-02T07:38:57.604Z,6599
2022-08-02T07:40:13.843Z,5990
2022-08-02T07:41:30.076Z,6662
2022-08-02T07:42:46.319Z,4079
2022-08-02T07:44:02.564Z,6120
2022-08-02T07:45:18.793Z,5734
2022-08-02T07:46:35.042Z,5802
2022-08-02T07:47:51.265Z,5667
2022-08-02T07:49:07.512Z,5648
2022-08-02T07:50:23.757Z,5348
2022-08-02T07:51:39.998Z,5534
2022-08-02T07:52:56.226Z,5496
2022-08-02T07:54:11.499Z,5547
2022-08-02T07:55:27.718Z,5541
2022-08-02T07:56:43.967Z,5432
2022-08-02T07:58:00.216Z,5263
2022-08-02T07:59:16.445Z,5191
2022-08-02T08:01:48.938Z,5050
2022-08-02T08:03:05.159Z,5141
2022-08-02T08:04:21.402Z,5095
2022-08-02T08:05:37.650Z,5043
2022-08-02T08:06:53.890Z,4963
2022-08-02T08:08:10.132Z,4947
2022-08-02T08:09:26.362Z,4944
2022-08-02T08:10:41.618Z,4962
2022-08-02T08:11:57.854Z,4992
2022-08-02T08:13:14.114Z,4961
2022-08-02T08:14:30.353Z,4977
2022-08-02T08:15:46.574Z,5008
2022-08-02T08:17:02.826Z,5009
2022-08-02T08:18:19.053Z,4986
2022-08-02T08:19:35.310Z,5000
2022-08-02T08:20:51.549Z,5059
2022-08-02T08:23:24.020Z,5188
2022-08-02T08:24:40.261Z,5256
2022-08-02T08:25:56.505Z,5353
2022-08-02T08:27:11.749Z,5339
2022-08-02T08:28:28.005Z,5372
2022-08-02T08:29:44.233Z,5493
2022-08-02T08:31:00.489Z,5560
2022-08-02T08:32:16.711Z,5532
2022-08-02T08:33:31.986Z,5449
2022-08-02T08:34:48.212Z,5433
2022-08-02T08:36:04.466Z,5395
2022-08-02T08:37:20.712Z,5373
2022-08-02T08:38:36.946Z,5326
2022-08-02T08:39:53.177Z,5253
2022-08-02T08:41:09.414Z,5199
2022-08-02T08:42:25.659Z,5217
2022-08-02T08:43:41.908Z,5242
2022-08-02T08:44:58.140Z,5218
2022-08-02T08:46:14.374Z,5263
2022-08-02T08:47:30.629Z,5314
2022-08-02T08:48:46.869Z,5415
2022-08-02T08:50:02.119Z,5430
2022-08-02T08:51:18.355Z,5456
2022-08-02T08:52:34.601Z,5452
2022-08-02T08:53:50.847Z,5486
2022-08-02T08:55:07.087Z,5506
2022-08-02T08:56:23.308Z,5571
2022-08-02T08:57:39.565Z,5563
2022-08-02T08:58:55.795Z,5601
2022-08-02T09:00:12.048Z,5511
2022-08-02T09:01:28.286Z,5531
2022-08-02T09:02:44.520Z,5546
2022-08-02T09:04:00.761Z,5546
2022-08-02T09:05:16.995Z,5522
2022-08-02T09:06:32.247Z,5528
2022-08-02T09:07:48.488Z,5531
2022-08-02T09:09:04.729Z,5545
2022-08-02T09:10:20.980Z,5574
2022-08-02T09:11:37.221Z,5510
2022-08-02T09:12:53.456Z,5520
2022-08-02T09:14:09.687Z,5516
2022-08-02T09:15:25.927Z,5480
2022-08-02T09:16:42.167Z,5504
2022-08-02T09:17:58.416Z,5467
2022-08-02T09:20:30.887Z,5337
2022-08-02T09:21:47.139Z,5495
2022-08-02T09:23:02.383Z,5788
2022-08-02T09:24:18.630Z,5755
2022-08-02T09:25:34.872Z,5986
2022-08-02T09:26:51.119Z,6581
2022-08-02T09:28:07.351Z,7011
2022-08-02T09:29:23.584Z,6447
2022-08-02T09:30:39.824Z,6562
2022-08-02T09:31:56.074Z,6668
2022-08-02T09:33:12.312Z,6183
2022-08-02T09:34:28.556Z,5891
2022-08-02T09:35:44.794Z,5713
2022-08-02T09:37:01.042Z,6111
2022-08-02T09:38:17.272Z,6052
2022-08-02T09:39:32.539Z,4824
2022-08-02T09:40:48.763Z,5240
2022-08-02T09:43:21.251Z,7728
2022-08-02T09:44:37.485Z,7456
2022-08-02T09:45:53.734Z,6522
2022-08-02T09:47:09.975Z,7202
2022-08-02T09:48:26.209Z,7147
2022-08-02T09:49:42.454Z,8024
2022-08-02T09:50:58.693Z,7555
2022-08-02T09:52:14.938Z,7147
2022-08-02T09:53:31.163Z,6587
2022-08-02T09:54:47.413Z,6024
2022-08-02T09:56:02.676Z,6548
2022-08-02T09:57:18.904Z,6737
2022-08-02T09:58:35.149Z,6167
2022-08-02T09:59:51.384Z,5801
2022-08-02T10:01:07.627Z,5308
2022-08-02T10:02:23.864Z,5220
2022-08-02T10:03:40.102Z,5575
2022-08-02T10:04:56.348Z,5350
2022-08-02T10:06:12.597Z,5427
2022-08-02T10:07:28.833Z,1683
2022-08-02T10:08:45.076Z,5856
2022-08-02T10:10:01.306Z,5824
2022-08-02T10:11:17.556Z,5491
2022-08-02T10:12:32.817Z,5648
2022-08-02T10:13:49.045Z,5954
2022-08-02T10:15:05.296Z,5924
2022-08-02T10:16:21.528Z,5836
2022-08-02T10:17:37.778Z,5421
2022-08-02T10:18:54.015Z,5761
2022-08-02T10:20:10.255Z,5283
2022-08-02T10:21:26.478Z,5498
2022-08-02T10:22:42.720Z,5482
2022-08-02T10:31:36.416Z,4761
2022-08-02T10:32:51.680Z,4797
2022-08-02T10:35:23.177Z,4982
2022-08-02T10:36:38.438Z,4568
2022-08-02T10:37:53.686Z,4801
2022-08-02T10:39:08.958Z,4651
2022-08-02T10:40:24.202Z,4485
2022-08-02T10:41:39.463Z,4586
2022-08-02T10:42:54.734Z,4417
2022-08-02T10:44:10.974Z,4474
2022-08-02T10:45:27.199Z,4418
2022-08-02T10:46:43.444Z,4636
2022-08-02T10:47:59.691Z,4561
2022-08-02T10:49:15.929Z,4362
2022-08-02T10:50:32.176Z,4399
2022-08-02T10:51:48.410Z,4360
2022-08-02T10:53:04.651Z,4401
2022-08-02T10:54:20.882Z,4297
2022-08-02T10:55:36.155Z,4378
2022-08-02T10:56:51.412Z,4129
2022-08-02T10:58:07.650Z,4102
2022-08-02T10:59:23.900Z,4166
2022-08-02T11:00:40.138Z,4234
2022-08-02T11:01:56.364Z,3869
2022-08-02T11:03:12.606Z,4452
2022-08-02T11:04:28.839Z,4143
2022-08-02T11:05:45.089Z,4047
2022-08-02T11:07:01.323Z,3957
2022-08-02T11:08:17.564Z,3918
2022-08-02T11:09:33.811Z,3903
2022-08-02T11:10:50.046Z,3766
2022-08-02T11:12:06.295Z,3657
2022-08-02T11:13:21.550Z,3708
2022-08-02T11:14:37.788Z,3672
2022-08-02T11:15:54.021Z,3808
2022-08-02T11:17:10.275Z,3645
2022-08-02T11:18:26.506Z,3751
2022-08-02T11:19:42.739Z,3788
2022-08-02T11:20:58.997Z,3776
2022-08-02T11:22:14.246Z,3784
2022-08-02T11:23:29.504Z,3743
2022-08-02T11:24:44.759Z,3760
2022-08-02T11:26:00.023Z,3633
2022-08-02T11:27:16.261Z,3686
2022-08-02T11:28:32.510Z,3781
2022-08-02T11:29:48.738Z,3663
2022-08-02T11:31:04.981Z,3703
2022-08-02T11:32:21.235Z,3700
2022-08-02T11:33:37.457Z,3688
2022-08-02T11:34:53.714Z,3731
2022-08-02T11:36:09.954Z,3575
2022-08-02T11:37:26.195Z,3523
2022-08-02T11:38:42.434Z,3379
2022-08-02T11:39:58.668Z,3408
2022-08-02T11:41:14.911Z,3307
2022-08-02T11:42:30.168Z,3237
2022-08-02T11:43:46.407Z,3192
2022-08-02T11:45:02.653Z,3145
2022-08-02T11:46:18.880Z,3133
2022-08-02T11:47:35.129Z,3103
2022-08-02T11:48:51.359Z,3081
2022-08-02T11:50:07.614Z,3096
2022-08-02T11:51:22.873Z,3053
2022-08-02T11:52:38.130Z,2995
2022-08-02T11:53:53.384Z,3054
2022-08-02T11:55:08.649Z,3033
2022-08-02T11:56:24.888Z,2981
2022-08-02T11:57:41.120Z,3011
2022-08-02T11:58:57.368Z,2981
2022-08-02T12:00:13.605Z,3074
2022-08-02T12:01:29.849Z,2958
2022-08-02T12:02:46.077Z,3055
2022-08-02T12:04:02.312Z,3085
2022-08-02T12:05:18.564Z,2974
2022-08-02T12:06:34.790Z,3016
2022-08-02T12:07:51.043Z,3000
2022-08-02T12:09:07.272Z,2879
2022-08-02T12:10:23.517Z,3016
2022-08-02T12:11:38.781Z,2975
2022-08-02T12:12:55.023Z,2905
2022-08-02T12:14:11.265Z,2971
2022-08-02T12:15:27.495Z,2936
2022-08-02T12:16:43.741Z,2894
2022-08-02T12:17:59.969Z,2914
2022-08-02T12:19:16.218Z,2842
2022-08-02T12:20:31.471Z,2943
2022-08-02T12:21:46.742Z,2876
2022-08-02T12:24:18.240Z,3020
2022-08-02T12:25:33.500Z,2847
2022-08-02T12:26:48.744Z,2771
2022-08-02T12:28:04.984Z,2747
2022-08-02T12:29:21.239Z,2774
2022-08-02T12:30:37.484Z,2746
2022-08-02T12:31:53.721Z,2655
2022-08-02T12:33:09.964Z,2822
2022-08-02T12:34:26.189Z,2866
2022-08-02T12:35:42.438Z,3006
2022-08-02T12:36:58.681Z,2945
2022-08-02T12:38:14.919Z,3062
2022-08-02T12:39:31.153Z,3167
2022-08-02T12:40:47.394Z,2836
2022-08-02T12:42:03.642Z,3051
2022-08-02T12:43:18.886Z,3064
2022-08-02T12:44:35.134Z,3241
2022-08-02T12:45:51.364Z,2607
2022-08-02T12:47:07.613Z,2940
2022-08-02T12:48:22.865Z,2343
2022-08-02T12:49:39.115Z,3455
2022-08-02T12:50:55.351Z,2816
2022-08-02T12:52:10.615Z,2670
2022-08-02T12:53:25.876Z,2665
2022-08-02T12:54:42.114Z,2607
2022-08-02T12:55:58.362Z,2652
2022-08-02T12:57:14.583Z,2605
2022-08-02T12:58:30.841Z,2635
2022-08-02T12:59:47.065Z,2606
2022-08-02T13:01:03.308Z,2521
2022-08-02T13:02:19.549Z,2640
2022-08-02T13:03:35.792Z,2595
2022-08-02T13:04:52.043Z,2568
2022-08-02T13:06:08.265Z,2594
2022-08-02T13:07:24.507Z,2532
2022-08-02T13:08:40.751Z,2671
2022-08-02T13:09:56.014Z,2622
2022-08-02T13:11:12.250Z,2586
2022-08-02T13:12:28.482Z,2557
2022-08-02T13:13:44.739Z,2559
2022-08-02T13:15:00.974Z,2524
2022-08-02T13:16:17.220Z,2490
2022-08-02T13:17:33.449Z,2487
2022-08-02T13:18:48.712Z,2456
2022-08-02T13:20:03.968Z,2407
2022-08-02T13:21:19.227Z,2510
2022-08-02T13:22:34.494Z,2419
2022-08-02T13:23:49.743Z,2428
2022-08-02T13:25:05.003Z,2421
2022-08-02T13:26:20.269Z,2400
2022-08-02T13:27:35.517Z,2635
2022-08-02T13:28:51.766Z,2423
2022-08-02T13:30:08.005Z,2452
2022-08-02T13:31:24.237Z,2438
2022-08-02T13:32:40.471Z,2433
2022-08-02T13:33:56.720Z,2466
2022-08-02T13:35:12.969Z,2453
2022-08-02T13:36:29.210Z,2406
2022-08-02T13:37:45.449Z,2448
2022-08-02T13:39:01.677Z,2411
2022-08-02T13:40:17.932Z,2422
2022-08-02T13:41:34.160Z,2416
2022-08-02T13:42:50.392Z,2395
2022-08-02T13:44:05.662Z,2433
2022-08-02T13:45:21.893Z,2301
2022-08-02T13:46:38.131Z,1563
2022-08-02T13:47:54.373Z,2414
2022-08-02T13:49:10.618Z,2406
2022-08-02T13:50:26.864Z,2412
2022-08-02T13:51:43.104Z,2384
2022-08-02T13:52:58.372Z,2368
2022-08-02T13:54:13.619Z,2401
2022-08-02T13:55:28.879Z,2381
2022-08-02T13:56:44.141Z,2472
2022-08-02T13:58:00.380Z,2349
2022-08-02T13:59:16.609Z,2397
2022-08-02T14:00:32.859Z,2482
2022-08-02T14:01:49.087Z,2282
2022-08-02T14:03:05.338Z,2341
2022-08-02T14:04:21.579Z,2255
2022-08-02T14:05:37.815Z,2296
2022-08-02T14:06:54.054Z,2343
2022-08-02T14:08:10.295Z,2430
2022-08-02T14:09:26.539Z,2399
2022-08-02T14:10:42.770Z,2206
2022-08-02T14:11:59.017Z,2254
2022-08-02T14:13:14.269Z,2428
2022-08-02T14:14:30.519Z,2433
2022-08-02T14:15:46.748Z,2382
2022-08-02T14:17:02.991Z,2370
2022-08-02T14:18:19.225Z,2421
2022-08-02T14:19:35.479Z,2323
2022-08-02T14:20:51.706Z,2247
2022-08-02T14:22:06.974Z,2244
2022-08-02T14:23:22.227Z,2198
2022-08-02T14:24:37.485Z,2315
2022-08-02T14:25:52.740Z,2266
2022-08-02T14:27:08.985Z,2222
2022-08-02T14:28:25.226Z,2522
2022-08-02T14:29:41.471Z,2345
2022-08-02T14:30:57.719Z,2543
2022-08-02T14:33:30.196Z,2748
2022-08-02T14:34:46.441Z,3068
2022-08-02T14:36:02.662Z,3028
2022-08-02T14:38:35.157Z,2978
2022-08-02T14:39:51.388Z,3110
2022-08-02T14:41:06.657Z,3155
2022-08-02T14:42:21.908Z,2995
2022-08-02T14:43:38.146Z,3107
2022-08-02T14:44:54.384Z,2904
2022-08-02T14:46:10.635Z,2962
2022-08-02T14:47:26.864Z,2964
2022-08-02T14:48:43.113Z,3152
2022-08-02T14:49:59.346Z,3164
2022-08-02T14:51:15.597Z,3194
2022-08-02T14:52:31.825Z,3246
2022-08-02T14:53:48.066Z,3275
2022-08-02T14:55:03.330Z,3110
2022-08-02T14:56:18.595Z,3300
2022-08-02T14:57:34.824Z,3034
2022-08-02T14:58:51.069Z,3153
2022-08-02T15:00:07.317Z,3242
2022-08-02T15:01:23.551Z,2902
2022-08-02T15:02:39.779Z,3078
2022-08-02T15:03:56.030Z,2908
2022-08-02T15:05:12.270Z,2861
2022-08-02T15:07:44.743Z,3527
2022-08-02T15:09:00.999Z,2663
2022-08-02T15:10:17.232Z,2866
2022-08-02T15:11:33.464Z,2909
2022-08-02T15:12:48.719Z,2774
2022-08-02T15:14:04.973Z,2753
2022-08-02T15:15:21.201Z,2528
2022-08-02T15:16:37.446Z,2795
2022-08-02T15:17:53.695Z,2701
2022-08-02T15:19:09.937Z,2767
2022-08-02T15:20:26.171Z,2762
2022-08-02T15:21:42.411Z,2768
2022-08-02T15:22:57.662Z,2459
2022-08-02T15:24:12.929Z,2519
2022-08-02T15:25:29.165Z,2585
2022-08-02T15:26:45.406Z,2460
2022-08-02T15:28:01.646Z,2342
2022-08-02T15:30:34.123Z,2428
2022-08-02T15:31:50.379Z,2438
2022-08-02T15:33:06.603Z,2527
2022-08-02T15:34:22.850Z,2505
2022-08-02T15:35:39.082Z,2409
2022-08-02T15:36:55.339Z,2465
2022-08-02T15:38:11.571Z,2551
2022-08-02T15:39:27.802Z,2354
2022-08-02T15:40:43.064Z,2249
2022-08-02T15:41:59.309Z,2227
2022-08-02T15:43:15.551Z,2215
2022-08-02T15:44:31.782Z,2184
2022-08-02T15:45:48.023Z,2196
2022-08-02T15:47:04.268Z,2132
2022-08-02T15:48:20.517Z,2171
2022-08-02T15:49:36.751Z,2141
2022-08-02T15:50:52.000Z,2065
2022-08-02T15:52:07.269Z,2091
2022-08-02T15:53:23.499Z,1981
2022-08-02T15:54:39.737Z,1931
2022-08-02T15:55:55.983Z,2014
2022-08-02T15:57:12.215Z,1818
2022-08-02T15:58:28.474Z,1774
2022-08-02T15:59:44.715Z,1999
2022-08-02T16:01:00.940Z,1830
2022-08-02T16:02:17.191Z,1685
2022-08-02T16:03:33.418Z,1704
2022-08-02T16:04:49.669Z,1851
2022-08-02T16:06:05.901Z,1705
2022-08-02T16:08:38.396Z,1482
2022-08-02T16:09:53.634Z,1381
2022-08-02T16:11:09.883Z,1336
2022-08-02T16:12:26.121Z,1401
2022-08-02T16:13:42.371Z,1684
2022-08-02T16:14:58.595Z,1636
2022-08-02T16:16:14.834Z,1566
2022-08-02T16:17:31.088Z,1538
2022-08-02T16:18:46.347Z,1495
2022-08-02T16:20:01.609Z,1528
2022-08-02T16:21:16.855Z,1592
2022-08-02T16:22:32.126Z,1554
2022-08-02T16:23:47.371Z,1546
2022-08-02T16:25:02.638Z,1522
2022-08-02T16:26:18.866Z,1526
2022-08-02T16:27:35.119Z,1533
2022-08-02T16:28:51.345Z,1497
2022-08-02T16:30:07.590Z,1463
2022-08-02T16:31:23.827Z,1452
2022-08-02T16:32:40.084Z,1447
2022-08-02T16:33:56.312Z,1448
2022-08-02T16:35:12.561Z,1441
2022-08-02T16:36:28.788Z,1472
2022-08-02T16:37:45.028Z,1459
2022-08-02T16:39:01.271Z,1440
2022-08-02T16:40:17.515Z,1461
2022-08-02T16:41:32.772Z,1369
2022-08-02T16:42:49.016Z,1361
2022-08-02T16:44:05.255Z,1362
2022-08-02T16:45:21.502Z,1336
2022-08-02T16:46:37.742Z,1286
2022-08-02T16:47:53.978Z,1243
2022-08-02T16:49:10.220Z,1225
2022-08-02T16:50:25.477Z,1198
2022-08-02T16:51:40.720Z,1204
2022-08-02T16:52:55.998Z,1183
2022-08-02T16:54:11.238Z,1220
2022-08-02T16:56:42.751Z,1246
2022-08-02T16:57:58.014Z,1306
2022-08-02T16:59:13.269Z,1326
2022-08-02T17:00:29.502Z,1289
2022-08-02T17:01:45.740Z,1316
2022-08-02T17:03:00.998Z,1321
2022-08-02T17:04:17.252Z,1278
2022-08-02T17:05:33.492Z,1298
2022-08-02T17:06:49.721Z,1298
2022-08-02T17:08:05.977Z,1275
2022-08-02T17:09:22.214Z,1249
2022-08-02T17:10:38.449Z,1280
2022-08-02T17:11:54.689Z,1252
2022-08-02T17:13:10.930Z,1250
2022-08-02T17:14:27.178Z,1208
2022-08-02T17:15:43.403Z,1195
2022-08-02T17:16:59.649Z,1172
2022-08-02T17:18:15.880Z,1144
2022-08-02T17:19:31.144Z,1116
2022-08-02T17:20:47.375Z,1092
2022-08-02T17:22:03.630Z,1074
2022-08-02T17:23:19.871Z,1047
2022-08-02T17:24:35.127Z,1031
2022-08-02T17:25:50.374Z,1007
2022-08-02T17:27:05.642Z,987
2022-08-02T17:28:20.909Z,961
2022-08-02T17:29:37.139Z,927
2022-08-02T17:30:53.387Z,904
2022-08-02T17:32:09.630Z,867
2022-08-02T17:33:25.856Z,712
2022-08-02T17:34:42.105Z,901
2022-08-02T17:35:58.345Z,880
2022-08-02T17:37:14.574Z,831
2022-08-02T17:38:30.827Z,942
2022-08-02T17:39:47.069Z,1019
2022-08-02T17:41:03.308Z,898
2022-08-02T17:42:19.549Z,854